createdAt,value
2022-11-10T00:00:45.542Z,100302.00
2022-11-10T00:03:14.245Z,100298.00
2022-11-10T00:05:44.470Z,100296.00
2022-11-10T00:08:13.902Z,100299.00
2022-11-10T00:11:02.461Z,100303.00
2022-11-10T00:13:33.452Z,100296.00
2022-11-10T00:16:21.032Z,100304.00
2022-11-10T00:18:49.957Z,100312.00
2022-11-10T00:21:20.360Z,100318.00
2022-11-10T00:23:48.988Z,100318.00
2022-11-10T00:26:19.726Z,100324.00
2022-11-10T00:28:48.597Z,100335.00
2022-11-10T00:31:17.403Z,100340.00
2022-11-10T00:33:46.810Z,100336.00
2022-11-10T00:36:15.420Z,100335.00
2022-11-10T00:38:45.628Z,100341.00
2022-11-10T00:41:14.264Z,100342.00
2022-11-10T00:43:42.945Z,100342.00
2022-11-10T00:46:11.733Z,100346.00
2022-11-10T00:48:40.716Z,100343.00
2022-11-10T00:51:10.979Z,100352.00
2022-11-10T00:53:39.576Z,100355.00
2022-11-10T00:56:09.877Z,100362.00
2022-11-10T00:58:38.787Z,100361.00
2022-11-10T01:01:08.223Z,100368.00
2022-11-10T01:03:37.204Z,100362.00
2022-11-10T01:06:08.009Z,100362.00
2022-11-10T01:08:37.077Z,100367.00
2022-11-10T01:11:06.934Z,100371.00
2022-11-10T01:13:37.897Z,100367.00
2022-11-10T01:16:07.596Z,100378.00
2022-11-10T01:18:36.718Z,100376.00
2022-11-10T01:21:06.282Z,100380.00
2022-11-10T01:23:35.319Z,100385.00
2022-11-10T01:26:06.172Z,100390.00
2022-11-10T01:28:37.423Z,100381.00
2022-11-10T01:31:08.553Z,100385.00
2022-11-10T01:33:37.983Z,100399.00
2022-11-10T01:36:07.999Z,100396.00
2022-11-10T01:38:38.299Z,100403.00
2022-11-10T01:41:12.848Z,100401.00
2022-11-10T01:43:43.400Z,100401.00
2022-11-10T01:46:13.745Z,100407.00
2022-11-10T01:48:46.404Z,100413.00
2022-11-10T01:51:20.173Z,100410.00
2022-11-10T01:53:57.265Z,100408.00
2022-11-10T01:56:27.160Z,100413.00
2022-11-10T01:58:59.943Z,100402.00
2022-11-10T02:01:29.194Z,100404.00
2022-11-10T02:04:00.885Z,100403.00
2022-11-10T02:06:34.541Z,100406.00
2022-11-10T02:09:03.259Z,100408.00
2022-11-10T02:11:33.211Z,100411.00
2022-11-10T02:14:03.863Z,100409.00
2022-11-10T02:16:35.563Z,100404.00
2022-11-10T02:19:20.110Z,100399.00
2022-11-10T02:21:50.236Z,100416.00
2022-11-10T02:24:19.178Z,100423.00
2022-11-10T02:26:52.311Z,100433.00
2022-11-10T02:29:21.652Z,100439.00
2022-11-10T02:31:50.756Z,100449.00
2022-11-10T02:34:19.925Z,100455.00
2022-11-10T02:36:50.146Z,100443.00
2022-11-10T02:39:19.004Z,100450.00
2022-11-10T02:41:47.749Z,100456.00
2022-11-10T02:44:16.685Z,100456.00
2022-11-10T02:46:45.570Z,100469.00
2022-11-10T02:49:14.429Z,100465.00
2022-11-10T02:51:43.552Z,100471.00
2022-11-10T02:54:13.760Z,100479.00
2022-11-10T02:56:42.513Z,100477.00
2022-11-10T02:59:11.287Z,100482.00
2022-11-10T03:02:02.798Z,100482.00
2022-11-10T03:04:34.685Z,100491.00
2022-11-10T03:07:12.609Z,100491.00
2022-11-10T03:09:51.761Z,100497.00
2022-11-10T03:12:40.281Z,100494.00
2022-11-10T03:15:29.897Z,100503.00
2022-11-10T03:17:59.412Z,100503.00
2022-11-10T03:20:38.344Z,100498.00
2022-11-10T03:23:09.961Z,100508.00
2022-11-10T03:25:40.411Z,100505.00
2022-11-10T03:28:19.186Z,100502.00
2022-11-10T03:30:57.046Z,100515.00
2022-11-10T03:33:27.805Z,100515.00
2022-11-10T03:35:56.701Z,100515.00
2022-11-10T03:38:32.772Z,100524.00
2022-11-10T03:41:20.218Z,100531.00
2022-11-10T03:43:56.541Z,100528.00
2022-11-10T03:46:30.097Z,100535.00
2022-11-10T03:49:07.223Z,100537.00
2022-11-10T03:51:40.830Z,100538.00
2022-11-10T03:54:16.775Z,100541.00
2022-11-10T03:56:52.631Z,100551.00
2022-11-10T03:59:24.609Z,100552.00
2022-11-10T04:01:59.561Z,100552.00
2022-11-10T04:04:57.161Z,100549.00
2022-11-10T04:10:44.208Z,100564.00
2022-11-10T04:13:32.221Z,100556.00
2022-11-10T04:16:01.733Z,100562.00
2022-11-10T04:18:30.658Z,100574.00
2022-11-10T04:21:01.218Z,100573.00
2022-11-10T04:23:34.906Z,100569.00
2022-11-10T04:26:23.131Z,100571.00
2022-11-10T04:28:54.781Z,100586.00
2022-11-10T04:31:25.253Z,100597.00
2022-11-10T04:33:54.841Z,100591.00
2022-11-10T04:36:33.680Z,100597.00
2022-11-10T04:39:17.454Z,100603.00
2022-11-10T04:41:59.753Z,100608.00
2022-11-10T04:44:55.723Z,100614.00
2022-11-10T04:47:29.414Z,100620.00
2022-11-10T04:50:02.350Z,100623.00
2022-11-10T04:52:32.600Z,100616.00
2022-11-10T04:55:13.867Z,100637.00
2022-11-10T04:57:43.875Z,100631.00
2022-11-10T05:00:17.812Z,100641.00
2022-11-10T05:02:53.220Z,100643.00
2022-11-10T05:05:36.363Z,100643.00
2022-11-10T05:08:06.467Z,100639.00
2022-11-10T05:10:38.254Z,100646.00
2022-11-10T05:13:07.515Z,100653.00
2022-11-10T05:15:44.001Z,100655.00
2022-11-10T05:18:17.110Z,100658.00
2022-11-10T05:20:47.594Z,100660.00
2022-11-10T05:23:33.637Z,100662.00
2022-11-10T05:26:02.401Z,100663.00
2022-11-10T05:28:31.205Z,100667.00
2022-11-10T05:31:04.638Z,100659.00
2022-11-10T05:33:34.855Z,100670.00
2022-11-10T05:36:06.481Z,100665.00
2022-11-10T05:38:41.877Z,100665.00
2022-11-10T05:41:15.077Z,100667.00
2022-11-10T05:43:50.054Z,100671.00
2022-11-10T05:46:36.390Z,100668.00
2022-11-10T05:49:05.786Z,100669.00
2022-11-10T05:51:37.568Z,100680.00
2022-11-10T05:54:12.022Z,100678.00
2022-11-10T05:56:40.902Z,100680.00
2022-11-10T05:59:09.831Z,100686.00
2022-11-10T06:01:40.116Z,100698.00
2022-11-10T06:04:20.817Z,100711.00
2022-11-10T06:06:51.997Z,100706.00
2022-11-10T06:09:20.715Z,100722.00
2022-11-10T06:11:49.415Z,100726.00
2022-11-10T06:14:18.092Z,100729.00
2022-11-10T06:16:48.233Z,100732.00
2022-11-10T06:19:17.007Z,100734.00
2022-11-10T06:21:45.719Z,100751.00
2022-11-10T06:24:14.496Z,100770.00
2022-11-10T06:26:44.930Z,100763.00
2022-11-10T06:29:13.784Z,100772.00
2022-11-10T06:31:42.573Z,100780.00
2022-11-10T06:34:15.619Z,100797.00
2022-11-10T06:36:44.377Z,100795.00
2022-11-10T06:39:13.294Z,100802.00
2022-11-10T06:41:41.911Z,100812.00
2022-11-10T06:44:11.981Z,100804.00
2022-11-10T06:46:42.450Z,100822.00
2022-11-10T06:49:12.668Z,100819.00
2022-11-10T06:51:41.449Z,100827.00
2022-11-10T06:54:10.283Z,100830.00
2022-11-10T06:56:39.035Z,100835.00
2022-11-10T06:59:07.829Z,100836.00
2022-11-10T07:01:36.554Z,100846.00
2022-11-10T07:04:19.091Z,100855.00
2022-11-10T07:06:50.229Z,100844.00
2022-11-10T07:09:18.995Z,100862.00
2022-11-10T07:11:47.862Z,100863.00
2022-11-10T07:14:16.476Z,100871.00
2022-11-10T07:16:45.155Z,100883.00
2022-11-10T07:19:13.849Z,100885.00
2022-11-10T07:21:43.374Z,100886.00
2022-11-10T07:24:13.492Z,100900.00
2022-11-10T07:26:42.160Z,100907.00
2022-11-10T07:29:10.782Z,100909.00
2022-11-10T07:31:39.828Z,100917.00
2022-11-10T07:34:08.794Z,100923.00
2022-11-10T07:36:37.595Z,100927.00
2022-11-10T07:39:06.411Z,100919.00
2022-11-10T07:41:36.998Z,100936.00
2022-11-10T07:44:05.971Z,100929.00
2022-11-10T07:46:34.630Z,100934.00
2022-11-10T07:49:03.352Z,100935.00
2022-11-10T07:51:31.923Z,100934.00
2022-11-10T07:54:00.579Z,100942.00
2022-11-10T07:56:29.379Z,100940.00
2022-11-10T07:58:59.971Z,100952.00
2022-11-10T08:01:28.757Z,100955.00
2022-11-10T08:03:57.434Z,100963.00
2022-11-10T08:06:26.176Z,100963.00
2022-11-10T08:08:54.942Z,100972.00
2022-11-10T08:11:23.569Z,100973.00
2022-11-10T08:13:52.250Z,100975.00
2022-11-10T08:16:22.379Z,100975.00
2022-11-10T08:18:51.095Z,100977.00
2022-11-10T08:21:19.717Z,100981.00
2022-11-10T08:23:48.507Z,100997.00
2022-11-10T08:26:17.855Z,100993.00
2022-11-10T08:28:46.888Z,101003.00
2022-11-10T08:31:15.683Z,101020.00
2022-11-10T08:33:46.579Z,101015.00
2022-11-10T08:36:15.415Z,101011.00
2022-11-10T08:38:44.083Z,101001.00
2022-11-10T08:41:12.919Z,101024.00
2022-11-10T08:43:41.900Z,101020.00
2022-11-10T08:46:10.706Z,101029.00
2022-11-10T08:48:39.400Z,101033.00
2022-11-10T08:51:09.443Z,101038.00
2022-11-10T08:53:38.714Z,101032.00
2022-11-10T08:56:08.019Z,101034.00
2022-11-10T08:58:46.268Z,101042.00
2022-11-10T09:01:21.675Z,101049.00
2022-11-10T09:03:50.351Z,101054.00
2022-11-10T09:06:20.986Z,101049.00
2022-11-10T09:08:49.981Z,101049.00
2022-11-10T09:11:23.583Z,101056.00
2022-11-10T09:13:52.272Z,101058.00
2022-11-10T09:16:20.908Z,101058.00
2022-11-10T09:18:49.723Z,101063.00
2022-11-10T09:21:22.119Z,101066.00
2022-11-10T09:23:50.830Z,101074.00
2022-11-10T09:26:19.476Z,101073.00
2022-11-10T09:28:50.269Z,101087.00
2022-11-10T09:31:18.951Z,101079.00
2022-11-10T09:33:47.704Z,101079.00
2022-11-10T09:36:16.501Z,101081.00
2022-11-10T09:38:46.704Z,101090.00
2022-11-10T09:41:16.638Z,101100.00
2022-11-10T09:44:01.800Z,101103.00
2022-11-10T09:46:36.940Z,101101.00
2022-11-10T09:49:15.800Z,101108.00
2022-11-10T09:51:48.351Z,101116.00
2022-11-10T09:54:34.248Z,101112.00
2022-11-10T09:57:05.087Z,101118.00
2022-11-10T09:59:35.111Z,101129.00
2022-11-10T10:02:07.236Z,101126.00
2022-11-10T10:04:56.425Z,101118.00
2022-11-10T10:07:30.014Z,101119.00
2022-11-10T10:10:14.504Z,101118.00
2022-11-10T10:13:00.647Z,101125.00
2022-11-10T10:15:35.581Z,101124.00
2022-11-10T10:18:19.735Z,101114.00
2022-11-10T10:21:03.955Z,101117.00
2022-11-10T10:26:31.310Z,101131.00
2022-11-10T10:29:03.748Z,101120.00
2022-11-10T10:31:37.571Z,101125.00
2022-11-10T10:34:11.088Z,101120.00
2022-11-10T10:36:40.741Z,101126.00
2022-11-10T10:39:13.599Z,101121.00
2022-11-10T10:41:45.787Z,101118.00
2022-11-10T10:44:16.582Z,101111.00
2022-11-10T10:46:48.411Z,101116.00
2022-11-10T10:49:29.537Z,101120.00
2022-11-10T10:52:07.729Z,101131.00
2022-11-10T10:54:38.323Z,101119.00
2022-11-10T10:57:22.585Z,101121.00
2022-11-10T10:59:51.571Z,101114.00
2022-11-10T11:02:28.588Z,101120.00
2022-11-10T11:05:13.391Z,101118.00
2022-11-10T11:07:42.878Z,101116.00
2022-11-10T11:10:22.845Z,101113.00
2022-11-10T11:12:53.063Z,101129.00
2022-11-10T11:15:26.494Z,101121.00
2022-11-10T11:18:00.283Z,101135.00
2022-11-10T11:20:39.694Z,101132.00
2022-11-10T11:23:25.756Z,101144.00
2022-11-10T11:25:59.657Z,101134.00
2022-11-10T11:28:40.217Z,101139.00
2022-11-10T11:31:18.667Z,101142.00
2022-11-10T11:33:52.753Z,101139.00
2022-11-10T11:36:30.673Z,101136.00
2022-11-10T11:39:07.589Z,101140.00
2022-11-10T11:41:46.056Z,101140.00
2022-11-10T11:44:37.961Z,101162.00
2022-11-10T11:47:23.635Z,101158.00
2022-11-10T11:50:03.842Z,101148.00
2022-11-10T11:52:38.511Z,101165.00
2022-11-10T11:55:31.797Z,101158.00
2022-11-10T11:58:25.597Z,101148.00
2022-11-10T12:01:08.896Z,101145.00
2022-11-10T12:04:15.511Z,101148.00
2022-11-10T12:06:54.838Z,101150.00
2022-11-10T12:09:33.170Z,101152.00
2022-11-10T12:12:15.767Z,101150.00
2022-11-10T12:14:54.979Z,101151.00
2022-11-10T12:17:33.543Z,101152.00
2022-11-10T12:20:13.453Z,101166.00
2022-11-10T12:22:54.134Z,101167.00
2022-11-10T12:25:29.917Z,101157.00
2022-11-10T12:28:04.453Z,101160.00
2022-11-10T12:30:35.190Z,101168.00
2022-11-10T12:33:13.994Z,101157.00
2022-11-10T12:35:45.098Z,101162.00
2022-11-10T12:38:20.104Z,101175.00
2022-11-10T12:40:53.062Z,101165.00
2022-11-10T12:43:29.520Z,101164.00
2022-11-10T12:46:01.579Z,101162.00
2022-11-10T12:48:44.305Z,101161.00
2022-11-10T12:51:21.897Z,101162.00
2022-11-10T12:53:51.072Z,101177.00
2022-11-10T12:56:24.802Z,101172.00
2022-11-10T12:59:21.268Z,101170.00
2022-11-10T13:01:53.717Z,101169.00
2022-11-10T13:07:37.869Z,101173.00
2022-11-10T13:10:23.760Z,101178.00
2022-11-10T13:13:07.539Z,101184.00
2022-11-10T13:15:55.613Z,101182.00
2022-11-10T13:18:55.603Z,101182.00
2022-11-10T13:21:57.625Z,101179.00
2022-11-10T13:24:29.021Z,101193.00
2022-11-10T13:26:58.846Z,101166.00
2022-11-10T13:29:34.912Z,101197.00
2022-11-10T13:32:28.486Z,101198.00
2022-11-10T13:35:18.701Z,101196.00
2022-11-10T13:37:53.122Z,101202.00
2022-11-10T13:40:35.909Z,101197.00
2022-11-10T13:43:25.731Z,101211.00
2022-11-10T13:46:07.784Z,101210.00
2022-11-10T13:49:19.422Z,101218.00
2022-11-10T13:51:56.341Z,101212.00
2022-11-10T13:54:50.265Z,101210.00
2022-11-10T13:57:28.791Z,101211.00
2022-11-10T14:00:00.350Z,101212.00
2022-11-10T14:02:50.154Z,101213.00
2022-11-10T14:05:58.340Z,101229.00
2022-11-10T14:08:34.100Z,101239.00
2022-11-10T14:11:05.866Z,101230.00
2022-11-10T14:13:43.108Z,101232.00
2022-11-10T14:16:19.462Z,101236.00
2022-11-10T14:18:56.776Z,101241.00
2022-11-10T14:21:40.151Z,101234.00
2022-11-10T14:24:20.237Z,101243.00
2022-11-10T14:26:52.435Z,101245.00
2022-11-10T14:29:31.229Z,101256.00
2022-11-10T14:32:03.114Z,101271.00
2022-11-10T14:34:33.807Z,101264.00
2022-11-10T14:37:04.506Z,101280.00
2022-11-10T14:39:35.527Z,101285.00
2022-11-10T14:42:06.511Z,101280.00
2022-11-10T14:44:36.730Z,101278.00
2022-11-10T14:47:28.523Z,101282.00
2022-11-10T14:50:19.530Z,101287.00
2022-11-10T14:52:51.734Z,101280.00
2022-11-10T14:55:24.135Z,101292.00
2022-11-10T14:57:56.583Z,101281.00
2022-11-10T15:00:28.574Z,101273.00
2022-11-10T15:02:59.246Z,101288.00
2022-11-10T15:05:28.415Z,101288.00
2022-11-10T15:07:59.190Z,101290.00
2022-11-10T15:10:29.802Z,101300.00
2022-11-10T15:13:03.729Z,101307.00
2022-11-10T15:15:33.943Z,101306.00
2022-11-10T15:18:02.650Z,101320.00
2022-11-10T15:20:39.231Z,101315.00
2022-11-10T15:23:21.514Z,101311.00
2022-11-10T15:25:53.131Z,101306.00
2022-11-10T15:28:31.009Z,101313.00
2022-11-10T15:31:03.858Z,101316.00
2022-11-10T15:33:42.076Z,101316.00
2022-11-10T15:36:35.843Z,101316.00
2022-11-10T15:39:08.247Z,101324.00
2022-11-10T15:41:55.476Z,101339.00
2022-11-10T15:44:41.800Z,101344.00
2022-11-10T15:47:24.164Z,101342.00
2022-11-10T15:49:59.331Z,101342.00
2022-11-10T15:52:30.314Z,101349.00
2022-11-10T15:55:07.076Z,101346.00
2022-11-10T15:58:23.822Z,101343.00
2022-11-10T16:01:00.792Z,101341.00
2022-11-10T16:03:41.325Z,101345.00
2022-11-10T16:06:35.377Z,101367.00
2022-11-10T16:09:05.023Z,101366.00
2022-11-10T16:11:41.861Z,101368.00
2022-11-10T16:14:25.119Z,101379.00
2022-11-10T16:16:57.078Z,101373.00
2022-11-10T16:19:38.203Z,101376.00
2022-11-10T16:22:12.003Z,101373.00
2022-11-10T16:24:50.736Z,101382.00
2022-11-10T16:27:23.196Z,101386.00
2022-11-10T16:29:54.836Z,101393.00
2022-11-10T16:32:23.805Z,101394.00
2022-11-10T16:34:57.615Z,101397.00
2022-11-10T16:37:26.463Z,101403.00
2022-11-10T16:39:56.657Z,101397.00
2022-11-10T16:42:25.474Z,101400.00
2022-11-10T16:45:05.753Z,101411.00
2022-11-10T16:47:35.856Z,101401.00
2022-11-10T16:50:20.191Z,101407.00
2022-11-10T16:52:51.399Z,101409.00
2022-11-10T16:55:31.429Z,101415.00
2022-11-10T16:58:06.587Z,101413.00
2022-11-10T17:00:42.951Z,101416.00
2022-11-10T17:03:19.937Z,101423.00
2022-11-10T17:06:03.032Z,101417.00
2022-11-10T17:08:42.588Z,101422.00
2022-11-10T17:11:11.791Z,101412.00
2022-11-10T17:13:55.046Z,101418.00
2022-11-10T17:16:33.790Z,101414.00
2022-11-10T17:19:16.699Z,101429.00
2022-11-10T17:21:56.732Z,101427.00
2022-11-10T17:24:32.591Z,101429.00
2022-11-10T17:27:11.027Z,101438.00
2022-11-10T17:29:40.074Z,101439.00
2022-11-10T17:32:13.097Z,101441.00
2022-11-10T17:34:42.722Z,101448.00
2022-11-10T17:37:15.673Z,101450.00
2022-11-10T17:39:44.593Z,101450.00
2022-11-10T17:42:14.718Z,101471.00
2022-11-10T17:44:43.905Z,101465.00
2022-11-10T17:47:16.260Z,101458.00
2022-11-10T17:49:50.473Z,101458.00
2022-11-10T17:52:20.897Z,101461.00
2022-11-10T17:54:59.403Z,101462.00
2022-11-10T17:57:30.031Z,101463.00
2022-11-10T18:00:10.260Z,101467.00
2022-11-10T18:02:39.189Z,101465.00
2022-11-10T18:05:14.271Z,101465.00
2022-11-10T18:07:53.266Z,101455.00
2022-11-10T18:10:28.910Z,101461.00
2022-11-10T18:13:04.068Z,101466.00
2022-11-10T18:15:37.863Z,101467.00
2022-11-10T18:18:14.150Z,101470.00
2022-11-10T18:20:48.164Z,101474.00
2022-11-10T18:23:22.145Z,101475.00
2022-11-10T18:25:54.757Z,101489.00
2022-11-10T18:28:26.671Z,101478.00
2022-11-10T18:30:55.489Z,101487.00
2022-11-10T18:33:28.530Z,101473.00
2022-11-10T18:36:03.015Z,101478.00
2022-11-10T18:38:36.557Z,101474.00
2022-11-10T18:41:22.046Z,101484.00
2022-11-10T18:43:55.068Z,101489.00
2022-11-10T18:46:26.861Z,101491.00
2022-11-10T18:49:09.723Z,101494.00
2022-11-10T18:51:53.053Z,101494.00
2022-11-10T18:54:32.448Z,101495.00
2022-11-10T18:57:44.082Z,101487.00
2022-11-10T19:00:19.563Z,101490.00
2022-11-10T19:02:55.460Z,101478.00
2022-11-10T19:05:32.859Z,101478.00
2022-11-10T19:08:18.550Z,101485.00
2022-11-10T19:10:51.535Z,101493.00
2022-11-10T19:13:35.872Z,101495.00
2022-11-10T19:16:10.919Z,101502.00
2022-11-10T19:18:43.378Z,101506.00
2022-11-10T19:21:18.795Z,101506.00
2022-11-10T19:23:58.283Z,101503.00
2022-11-10T19:26:33.385Z,101506.00
2022-11-10T19:29:04.816Z,101499.00
2022-11-10T19:31:38.653Z,101497.00
2022-11-10T19:34:14.453Z,101503.00
2022-11-10T19:36:46.018Z,101501.00
2022-11-10T19:39:20.576Z,101511.00
2022-11-10T19:41:59.315Z,101506.00
2022-11-10T19:44:40.874Z,101513.00
2022-11-10T19:47:12.229Z,101529.00
2022-11-10T19:49:41.080Z,101528.00
2022-11-10T19:52:09.813Z,101535.00
2022-11-10T19:54:43.602Z,101535.00
2022-11-10T19:57:17.013Z,101543.00
2022-11-10T19:59:49.521Z,101532.00
2022-11-10T20:02:24.662Z,101542.00
2022-11-10T20:05:18.441Z,101544.00
2022-11-10T20:10:56.264Z,101540.00
2022-11-10T20:13:54.491Z,101536.00
2022-11-10T20:16:30.689Z,101544.00
2022-11-10T20:19:14.851Z,101545.00
2022-11-10T20:21:57.040Z,101560.00
2022-11-10T20:24:44.886Z,101557.00
2022-11-10T20:27:28.057Z,101567.00
2022-11-10T20:30:22.470Z,101574.00
2022-11-10T20:32:52.326Z,101577.00
2022-11-10T20:35:21.286Z,101576.00
2022-11-10T20:37:53.751Z,101582.00
2022-11-10T20:40:43.525Z,101576.00
2022-11-10T20:43:15.287Z,101578.00
2022-11-10T20:45:47.303Z,101559.00
2022-11-10T20:48:18.600Z,101545.00
2022-11-10T20:51:01.013Z,101551.00
2022-11-10T20:53:42.031Z,101546.00
2022-11-10T20:56:16.611Z,101550.00
2022-11-10T20:58:49.089Z,101555.00
2022-11-10T21:01:29.018Z,101553.00
2022-11-10T21:03:58.206Z,101559.00
2022-11-10T21:06:41.381Z,101568.00
2022-11-10T21:09:39.138Z,101560.00
2022-11-10T21:12:32.845Z,101547.00
2022-11-10T21:15:13.046Z,101547.00
2022-11-10T21:17:44.318Z,101546.00
2022-11-10T21:20:22.867Z,101550.00
2022-11-10T21:22:56.935Z,101544.00
2022-11-10T21:27:50.645Z,101563.00
2022-11-10T21:30:24.028Z,101551.00
2022-11-10T21:32:52.903Z,101558.00
2022-11-10T21:35:38.000Z,101565.00
2022-11-10T21:38:07.848Z,101579.00
2022-11-10T21:40:42.969Z,101574.00
2022-11-10T21:43:29.013Z,101565.00
2022-11-10T21:46:05.871Z,101575.00
2022-11-10T21:49:24.941Z,101571.00
2022-11-10T21:55:09.802Z,101577.00
2022-11-10T22:00:44.670Z,101567.00
2022-11-10T22:04:02.761Z,101576.00
2022-11-10T22:07:00.511Z,101569.00
2022-11-10T22:09:56.097Z,101577.00
2022-11-10T22:12:42.279Z,101578.00
2022-11-10T22:15:32.699Z,101582.00
2022-11-10T22:18:44.464Z,101580.00
2022-11-10T22:21:59.551Z,101604.00
2022-11-10T22:25:11.816Z,101609.00
2022-11-10T22:28:04.772Z,101604.00
2022-11-10T22:30:46.519Z,101597.00
2022-11-10T22:33:41.770Z,101600.00
2022-11-10T22:36:43.948Z,101599.00
2022-11-10T22:40:17.239Z,101598.00
2022-11-10T22:43:06.694Z,101585.00
2022-11-10T22:45:43.503Z,101590.00
2022-11-10T22:51:28.333Z,101593.00
2022-11-10T22:54:08.226Z,101584.00
2022-11-10T22:56:37.124Z,101599.00
2022-11-10T22:59:13.324Z,101593.00
2022-11-10T23:02:03.765Z,101590.00
2022-11-10T23:05:07.671Z,101585.00
2022-11-10T23:11:15.278Z,101578.00
2022-11-10T23:14:51.297Z,101579.00
2022-11-10T23:23:59.604Z,101591.00
2022-11-10T23:26:33.937Z,101594.00
2022-11-10T23:29:13.260Z,101599.00
2022-11-10T23:31:44.477Z,101591.00
2022-11-10T23:34:17.921Z,101588.00
2022-11-10T23:36:55.352Z,101589.00
2022-11-10T23:39:30.661Z,101592.00
2022-11-10T23:42:05.397Z,101593.00
2022-11-10T23:44:49.010Z,101604.00
2022-11-10T23:47:24.454Z,101598.00
2022-11-10T23:50:00.617Z,101607.00
2022-11-10T23:52:35.056Z,101622.00
2022-11-10T23:55:06.403Z,101622.00
2022-11-10T23:57:38.121Z,101622.00
